createdAt,value
2022-12-26T00:01:03.575Z,54.08
2022-12-26T00:06:13.807Z,54.35
2022-12-26T00:11:18.024Z,54.10
2022-12-26T00:16:23.099Z,54.25
2022-12-26T00:21:29.391Z,54.20
2022-12-26T00:26:36.024Z,54.10
2022-12-26T00:31:39.705Z,54.45
2022-12-26T00:36:44.653Z,54.10
2022-12-26T00:41:47.995Z,54.06
2022-12-26T00:46:51.481Z,53.98
2022-12-26T00:51:56.398Z,53.88
2022-12-26T00:56:59.449Z,53.32
2022-12-26T01:02:23.159Z,53.96
2022-12-26T01:07:28.065Z,53.93
2022-12-26T01:12:31.784Z,53.76
2022-12-26T01:17:35.469Z,54.12
2022-12-26T01:22:40.288Z,53.59
2022-12-26T01:27:43.504Z,53.69
2022-12-26T01:32:46.894Z,53.35
2022-12-26T01:37:51.757Z,53.54
2022-12-26T01:42:55.140Z,53.17
2022-12-26T01:48:04.142Z,53.11
2022-12-26T01:53:14.278Z,52.87
2022-12-26T01:58:23.011Z,53.13
2022-12-26T02:03:44.100Z,52.92
2022-12-26T02:08:49.008Z,52.95
2022-12-26T02:13:52.708Z,52.83
2022-12-26T02:18:56.146Z,52.70
2022-12-26T02:24:23.539Z,52.63
2022-12-26T02:29:58.753Z,53.03
2022-12-26T02:35:12.461Z,52.66
2022-12-26T02:40:32.027Z,52.41
2022-12-26T02:45:59.267Z,52.79
2022-12-26T02:51:32.447Z,52.42
2022-12-26T02:56:57.181Z,52.55
2022-12-26T03:02:20.599Z,52.97
2022-12-26T03:07:47.159Z,52.96
2022-12-26T03:13:12.163Z,52.70
2022-12-26T03:18:15.991Z,52.92
2022-12-26T03:23:23.111Z,52.45
2022-12-26T03:28:27.711Z,53.43
2022-12-26T03:33:50.761Z,53.19
2022-12-26T03:39:15.468Z,52.95
2022-12-26T03:44:53.765Z,53.33
2022-12-26T03:50:25.581Z,53.31
2022-12-26T03:56:09.115Z,53.13
2022-12-26T04:01:37.043Z,53.05
2022-12-26T04:07:04.407Z,52.86
2022-12-26T04:12:36.449Z,52.93
2022-12-26T04:18:03.864Z,53.06
2022-12-26T04:23:32.071Z,53.13
2022-12-26T04:28:54.388Z,53.29
2022-12-26T04:34:17.980Z,53.88
2022-12-26T04:39:44.336Z,53.43
2022-12-26T04:44:51.044Z,53.31
2022-12-26T04:50:11.886Z,53.20
2022-12-26T04:55:15.440Z,52.87
2022-12-26T05:00:20.747Z,52.66
2022-12-26T05:05:53.357Z,52.93
2022-12-26T05:10:56.828Z,52.84
2022-12-26T05:16:18.817Z,52.71
2022-12-26T05:21:39.391Z,52.53
2022-12-26T05:27:00.338Z,52.56
2022-12-26T05:32:05.436Z,52.67
2022-12-26T05:37:08.892Z,52.70
2022-12-26T05:42:12.226Z,52.41
2022-12-26T05:47:17.127Z,52.71
2022-12-26T05:52:20.601Z,52.80
2022-12-26T05:57:24.220Z,52.68
2022-12-26T06:02:31.051Z,52.54
2022-12-26T06:07:34.835Z,52.19
2022-12-26T06:12:38.295Z,52.07
2022-12-26T06:17:43.277Z,51.95
2022-12-26T06:22:46.701Z,52.13
2022-12-26T06:27:50.360Z,51.96
2022-12-26T06:32:55.134Z,51.72
2022-12-26T06:37:58.736Z,51.52
2022-12-26T06:43:02.171Z,51.70
2022-12-26T06:48:07.643Z,51.56
2022-12-26T06:53:10.980Z,51.43
2022-12-26T06:58:14.678Z,51.63
2022-12-26T07:03:19.375Z,52.01
2022-12-26T07:08:24.594Z,52.18
2022-12-26T07:13:28.142Z,51.94
2022-12-26T07:18:33.736Z,52.21
2022-12-26T07:23:40.657Z,51.75
2022-12-26T07:28:44.956Z,51.67
2022-12-26T07:33:50.769Z,51.74
2022-12-26T07:38:54.383Z,51.62
2022-12-26T07:43:57.874Z,51.91
2022-12-26T07:49:03.273Z,51.48
2022-12-26T07:54:10.894Z,51.90
2022-12-26T07:59:16.956Z,51.45
2022-12-26T08:04:22.054Z,51.21
2022-12-26T08:09:25.921Z,50.88
2022-12-26T08:14:29.396Z,50.84
2022-12-26T08:19:34.410Z,50.49
2022-12-26T08:24:37.990Z,50.58
2022-12-26T08:29:41.671Z,50.85
2022-12-26T08:34:46.913Z,50.28
2022-12-26T08:39:50.507Z,50.20
2022-12-26T08:44:53.950Z,50.21
2022-12-26T08:49:58.989Z,49.74
2022-12-26T08:55:03.231Z,49.19
2022-12-26T09:00:08.921Z,48.88
2022-12-26T09:05:13.657Z,48.81
2022-12-26T09:10:17.289Z,48.49
2022-12-26T09:15:20.825Z,48.63
2022-12-26T09:20:25.959Z,48.51
2022-12-26T09:25:29.491Z,48.48
2022-12-26T09:30:33.198Z,48.58
2022-12-26T09:35:41.197Z,48.10
2022-12-26T09:40:56.915Z,48.34
2022-12-26T09:46:07.649Z,47.86
2022-12-26T09:51:12.911Z,48.17
2022-12-26T09:57:01.343Z,47.78
2022-12-26T10:01:43.916Z,47.86
2022-12-26T10:06:54.019Z,47.93
2022-12-26T10:12:16.420Z,48.26
2022-12-26T10:17:26.585Z,48.06
2022-12-26T10:22:46.614Z,48.05
2022-12-26T10:27:52.557Z,49.25
2022-12-26T10:33:00.970Z,49.29
2022-12-26T10:38:15.282Z,49.84
2022-12-26T10:43:29.815Z,49.78
2022-12-26T10:48:33.443Z,49.90
2022-12-26T10:53:43.174Z,49.84
2022-12-26T10:58:47.613Z,49.79
2022-12-26T11:03:56.846Z,49.75
2022-12-26T11:09:02.438Z,50.25
2022-12-26T11:14:06.128Z,50.75
2022-12-26T11:19:28.507Z,50.77
2022-12-26T11:24:34.226Z,51.08
2022-12-26T11:29:38.225Z,50.89
2022-12-26T11:34:47.467Z,51.57
2022-12-26T11:39:53.888Z,51.41
2022-12-26T11:45:04.087Z,51.47
2022-12-26T11:50:11.299Z,51.76
2022-12-26T11:55:33.672Z,51.45
2022-12-26T12:00:39.796Z,52.44
2022-12-26T12:05:50.787Z,52.22
2022-12-26T12:11:04.522Z,52.73
2022-12-26T12:16:16.384Z,53.56
2022-12-26T12:21:28.830Z,52.56
2022-12-26T12:26:42.241Z,53.08
2022-12-26T12:32:00.332Z,54.20
2022-12-26T12:37:20.176Z,53.42
2022-12-26T12:42:38.592Z,53.09
2022-12-26T12:47:53.332Z,52.43
2022-12-26T12:53:10.767Z,51.41
2022-12-26T12:58:24.895Z,51.70
2022-12-26T13:03:34.531Z,51.67
2022-12-26T13:08:41.804Z,51.42
2022-12-26T13:13:54.099Z,51.72
2022-12-26T13:19:02.582Z,51.78
2022-12-26T13:24:25.538Z,51.68
2022-12-26T13:29:42.048Z,52.64
2022-12-26T13:34:46.668Z,53.27
2022-12-26T13:39:54.481Z,53.30
2022-12-26T13:45:37.529Z,53.50
2022-12-26T13:50:55.604Z,53.33
2022-12-26T13:56:02.662Z,53.68
2022-12-26T14:01:22.981Z,54.08
2022-12-26T14:06:52.209Z,53.96
2022-12-26T14:12:19.257Z,54.55
2022-12-26T14:17:37.348Z,54.25
2022-12-26T14:22:48.153Z,54.07
2022-12-26T14:27:58.879Z,54.31
2022-12-26T14:33:19.724Z,54.40
2022-12-26T14:38:34.532Z,55.06
2022-12-26T14:43:39.453Z,54.28
2022-12-26T14:48:58.993Z,54.27
2022-12-26T14:54:38.696Z,54.23
2022-12-26T14:59:42.829Z,53.98
2022-12-26T15:05:12.228Z,54.28
2022-12-26T15:10:53.178Z,53.90
2022-12-26T15:16:17.662Z,53.38
2022-12-26T15:21:39.616Z,53.70
2022-12-26T15:27:11.681Z,53.68
2022-12-26T15:32:22.139Z,53.83
2022-12-26T15:37:43.558Z,54.25
2022-12-26T15:43:00.879Z,53.93
2022-12-26T15:48:13.133Z,54.37
2022-12-26T15:53:28.413Z,54.10
2022-12-26T15:59:05.726Z,54.78
2022-12-26T16:04:20.512Z,53.90
2022-12-26T16:09:42.967Z,53.80
2022-12-26T16:14:46.921Z,54.17
2022-12-26T16:19:52.601Z,53.70
2022-12-26T16:24:57.986Z,54.20
2022-12-26T16:30:11.985Z,54.51
2022-12-26T16:35:22.386Z,54.60
2022-12-26T16:40:31.706Z,54.50
2022-12-26T16:45:37.115Z,54.67
2022-12-26T16:50:48.895Z,55.25
2022-12-26T16:55:58.600Z,54.86
2022-12-26T17:01:06.308Z,54.79
2022-12-26T17:06:14.143Z,55.26
2022-12-26T17:11:20.156Z,54.73
2022-12-26T17:16:25.768Z,54.47
2022-12-26T17:21:31.878Z,54.52
2022-12-26T17:26:39.052Z,55.07
2022-12-26T17:31:45.811Z,55.06
2022-12-26T17:42:15.155Z,54.94
2022-12-26T17:47:24.657Z,54.63
2022-12-26T17:52:30.581Z,54.94
2022-12-26T17:57:35.587Z,55.21
2022-12-26T18:02:39.015Z,55.00
2022-12-26T18:07:43.309Z,54.83
2022-12-26T18:12:48.151Z,55.04
2022-12-26T18:17:54.249Z,54.70
2022-12-26T18:22:58.397Z,54.36
2022-12-26T18:28:03.700Z,54.48
2022-12-26T18:33:07.076Z,54.20
2022-12-26T18:38:14.697Z,55.00
2022-12-26T18:43:19.538Z,54.36
2022-12-26T18:48:23.330Z,54.21
2022-12-26T18:53:26.742Z,55.16
2022-12-26T18:58:31.749Z,55.06
2022-12-26T19:03:35.284Z,54.97
2022-12-26T19:08:38.914Z,55.04
2022-12-26T19:13:44.173Z,54.35
2022-12-26T19:18:47.752Z,54.66
2022-12-26T19:23:51.238Z,53.74
2022-12-26T19:28:57.496Z,54.13
2022-12-26T19:34:01.120Z,54.33
2022-12-26T19:39:05.413Z,54.52
2022-12-26T19:44:11.586Z,55.07
2022-12-26T19:49:15.430Z,54.90
2022-12-26T19:54:19.025Z,55.18
2022-12-26T19:59:24.053Z,55.62
2022-12-26T20:04:27.561Z,54.92
2022-12-26T20:09:31.292Z,55.18
2022-12-26T20:14:36.274Z,54.98
2022-12-26T20:19:39.868Z,55.03
2022-12-26T20:24:43.410Z,54.88
2022-12-26T20:29:48.534Z,54.38
2022-12-26T20:34:51.973Z,54.25
2022-12-26T20:39:56.362Z,54.83
2022-12-26T20:45:01.184Z,55.50
2022-12-26T20:50:07.742Z,54.86
2022-12-26T20:55:11.117Z,55.12
2022-12-26T21:00:18.639Z,55.79
2022-12-26T21:05:22.070Z,55.04
2022-12-26T21:10:25.723Z,55.02
2022-12-26T21:15:30.627Z,55.08
2022-12-26T21:20:34.261Z,54.68
2022-12-26T21:25:37.762Z,54.72
2022-12-26T21:30:46.034Z,54.58
2022-12-26T21:35:53.540Z,54.82
2022-12-26T21:40:57.323Z,54.92
2022-12-26T21:46:06.342Z,54.20
2022-12-26T21:51:10.627Z,54.87
2022-12-26T21:56:15.694Z,54.90
2022-12-26T22:01:22.245Z,54.28
2022-12-26T22:06:25.822Z,54.14
2022-12-26T22:11:46.810Z,54.60
2022-12-26T22:16:54.618Z,54.15
2022-12-26T22:21:58.294Z,54.53
2022-12-26T22:27:01.940Z,54.46
2022-12-26T22:32:07.564Z,54.59
2022-12-26T22:37:11.144Z,55.04
2022-12-26T22:42:14.880Z,55.02
2022-12-26T22:47:19.915Z,55.65
2022-12-26T22:52:23.262Z,55.05
2022-12-26T22:57:26.864Z,55.04
2022-12-26T23:02:31.773Z,54.94
2022-12-26T23:07:35.825Z,54.99
2022-12-26T23:12:45.287Z,54.91
2022-12-26T23:18:14.262Z,54.90
2022-12-26T23:23:18.166Z,55.68
2022-12-26T23:28:38.829Z,55.59
2022-12-26T23:33:43.794Z,55.95
2022-12-26T23:38:47.783Z,56.19
2022-12-26T23:43:51.083Z,55.54
2022-12-26T23:48:56.213Z,55.72
2022-12-26T23:53:59.789Z,55.35
2022-12-26T23:59:03.424Z,55.11
